createdAt,value
2023-01-21T00:02:25.173Z,61.52
2023-01-21T00:04:55.707Z,60.94
2023-01-21T00:07:26.890Z,61.08
2023-01-21T00:09:57.583Z,61.00
2023-01-21T00:12:30.514Z,60.60
2023-01-21T00:15:00.808Z,61.06
2023-01-21T00:17:36.302Z,60.98
2023-01-21T00:20:07.818Z,60.80
2023-01-21T00:22:38.637Z,60.87
2023-01-21T00:25:09.600Z,60.97
2023-01-21T00:27:40.198Z,60.87
2023-01-21T00:30:11.703Z,60.78
2023-01-21T00:32:43.117Z,61.05
2023-01-21T00:35:13.742Z,61.03
2023-01-21T00:37:44.021Z,60.68
2023-01-21T00:40:14.984Z,60.61
2023-01-21T00:42:45.844Z,60.74
2023-01-21T00:45:16.415Z,60.74
2023-01-21T00:47:47.152Z,60.23
2023-01-21T00:50:18.318Z,60.54
2023-01-21T00:52:49.903Z,60.16
2023-01-21T00:55:20.584Z,59.92
2023-01-21T00:57:50.923Z,59.82
2023-01-21T01:00:21.928Z,59.45
2023-01-21T01:02:52.583Z,59.17
2023-01-21T01:05:23.507Z,59.35
2023-01-21T01:07:53.740Z,58.89
2023-01-21T01:10:26.428Z,59.14
2023-01-21T01:12:56.740Z,59.29
2023-01-21T01:15:27.291Z,58.94
2023-01-21T01:17:57.864Z,59.25
2023-01-21T01:20:28.521Z,59.44
2023-01-21T01:22:59.155Z,58.93
2023-01-21T01:25:38.834Z,58.96
2023-01-21T01:28:09.344Z,58.59
2023-01-21T01:30:40.836Z,58.82
2023-01-21T01:33:12.174Z,58.18
2023-01-21T01:35:42.927Z,58.14
2023-01-21T01:38:14.762Z,58.09
2023-01-21T01:40:46.279Z,57.32
2023-01-21T01:43:20.848Z,57.67
2023-01-21T01:45:52.457Z,57.48
2023-01-21T01:48:30.065Z,57.36
2023-01-21T01:51:04.320Z,57.51
2023-01-21T01:53:35.432Z,56.54
2023-01-21T01:56:06.599Z,57.25
2023-01-21T01:58:37.331Z,56.77
2023-01-21T02:01:07.891Z,57.10
2023-01-21T02:03:45.942Z,57.26
2023-01-21T02:06:18.005Z,57.58
2023-01-21T02:08:49.493Z,57.09
2023-01-21T02:11:21.903Z,56.78
2023-01-21T02:13:55.811Z,56.28
2023-01-21T02:16:35.181Z,56.24
2023-01-21T02:19:30.616Z,56.90
2023-01-21T02:22:06.665Z,56.45
2023-01-21T02:25:09.247Z,56.40
2023-01-21T02:28:00.588Z,56.37
2023-01-21T02:30:36.146Z,56.04
2023-01-21T02:33:10.416Z,56.18
2023-01-21T02:36:01.970Z,56.10
2023-01-21T02:39:03.691Z,56.15
2023-01-21T02:41:44.872Z,55.94
2023-01-21T02:44:36.366Z,55.86
2023-01-21T02:47:17.477Z,55.49
2023-01-21T02:49:53.128Z,55.07
2023-01-21T02:52:25.466Z,54.87
2023-01-21T02:55:01.171Z,54.91
2023-01-21T02:57:50.996Z,54.73
2023-01-21T03:00:27.367Z,55.37
2023-01-21T03:03:23.889Z,55.27
2023-01-21T03:06:22.815Z,55.45
2023-01-21T03:09:01.369Z,55.32
2023-01-21T03:11:32.566Z,55.03
2023-01-21T03:15:00.203Z,54.48
2023-01-21T03:17:50.445Z,54.68
2023-01-21T03:20:27.024Z,54.99
2023-01-21T03:23:19.566Z,54.85
2023-01-21T03:25:51.862Z,55.03
2023-01-21T03:28:25.824Z,55.07
2023-01-21T03:31:12.389Z,55.24
2023-01-21T03:33:47.306Z,55.02
2023-01-21T03:36:27.859Z,55.12
2023-01-21T03:39:00.116Z,55.16
2023-01-21T03:41:38.368Z,55.34
2023-01-21T03:44:09.112Z,55.08
2023-01-21T03:47:21.926Z,55.11
2023-01-21T03:50:10.791Z,54.86
2023-01-21T03:52:44.169Z,54.71
2023-01-21T03:55:16.318Z,54.62
2023-01-21T03:57:47.311Z,54.31
2023-01-21T04:00:19.086Z,53.64
2023-01-21T04:02:49.657Z,53.16
2023-01-21T04:05:20.169Z,52.94
2023-01-21T04:07:51.301Z,52.23
2023-01-21T04:10:21.989Z,52.20
2023-01-21T04:12:53.081Z,51.60
2023-01-21T04:15:24.083Z,52.14
2023-01-21T04:17:55.465Z,52.50
2023-01-21T04:20:26.050Z,52.98
2023-01-21T04:22:56.876Z,52.71
2023-01-21T04:25:27.497Z,52.48
2023-01-21T04:28:01.528Z,52.92
2023-01-21T04:30:32.265Z,52.74
2023-01-21T04:33:02.792Z,52.83
2023-01-21T04:35:33.687Z,53.14
2023-01-21T04:38:04.775Z,53.28
2023-01-21T04:40:35.665Z,53.13
2023-01-21T04:43:07.318Z,53.37
2023-01-21T04:45:40.985Z,53.86
2023-01-21T04:48:13.448Z,53.88
2023-01-21T04:50:44.255Z,54.16
2023-01-21T04:53:14.941Z,53.87
2023-01-21T04:55:45.990Z,53.44
2023-01-21T04:58:16.228Z,53.16
2023-01-21T05:00:47.113Z,54.33
2023-01-21T05:03:17.843Z,53.92
2023-01-21T05:05:48.774Z,54.09
2023-01-21T05:08:19.762Z,53.69
2023-01-21T05:10:49.986Z,54.21
2023-01-21T05:13:21.292Z,54.44
2023-01-21T05:15:51.953Z,54.58
2023-01-21T05:18:22.575Z,54.33
2023-01-21T05:20:53.749Z,54.23
2023-01-21T05:23:24.412Z,53.88
2023-01-21T05:25:55.958Z,53.72
2023-01-21T05:28:26.823Z,53.75
2023-01-21T05:31:05.117Z,54.48
2023-01-21T05:33:36.682Z,53.75
2023-01-21T05:36:10.364Z,54.04
2023-01-21T05:38:41.057Z,54.09
2023-01-21T05:41:12.732Z,53.66
2023-01-21T05:43:43.533Z,53.44
2023-01-21T05:46:14.465Z,53.99
2023-01-21T05:48:45.398Z,54.08
2023-01-21T05:51:16.136Z,53.93
2023-01-21T05:53:47.381Z,54.10
2023-01-21T05:56:18.558Z,53.72
2023-01-21T05:58:49.025Z,53.40
2023-01-21T06:01:19.696Z,54.19
2023-01-21T06:03:50.303Z,54.42
2023-01-21T06:06:22.602Z,54.35
2023-01-21T06:08:53.394Z,54.57
2023-01-21T06:11:23.991Z,54.85
2023-01-21T06:13:54.670Z,53.96
2023-01-21T06:16:25.622Z,53.37
2023-01-21T06:18:56.540Z,53.57
2023-01-21T06:21:27.206Z,53.98
2023-01-21T06:23:58.408Z,55.58
2023-01-21T06:26:29.022Z,56.03
2023-01-21T06:28:59.807Z,56.62
2023-01-21T06:31:30.208Z,56.53
2023-01-21T06:34:00.733Z,57.00
2023-01-21T06:36:32.101Z,57.20
2023-01-21T06:39:05.139Z,57.46
2023-01-21T06:41:35.579Z,57.66
2023-01-21T06:44:07.103Z,57.82
2023-01-21T06:46:41.041Z,58.00
2023-01-21T06:49:11.985Z,58.03
2023-01-21T06:51:44.038Z,58.11
2023-01-21T06:54:14.527Z,58.38
2023-01-21T06:56:46.734Z,58.40
2023-01-21T06:59:17.376Z,58.39
2023-01-21T07:01:48.053Z,58.24
2023-01-21T07:04:18.716Z,58.27
2023-01-21T07:06:49.698Z,58.68
2023-01-21T07:09:20.714Z,58.60
2023-01-21T07:11:51.406Z,58.38
2023-01-21T07:14:22.193Z,59.26
2023-01-21T07:16:52.990Z,59.25
2023-01-21T07:19:25.251Z,59.54
2023-01-21T07:21:56.429Z,59.61
2023-01-21T07:24:27.095Z,59.36
2023-01-21T07:26:57.937Z,59.83
2023-01-21T07:29:29.701Z,60.06
2023-01-21T07:32:01.511Z,59.92
2023-01-21T07:34:32.953Z,59.95
2023-01-21T07:37:03.808Z,59.44
2023-01-21T07:39:37.229Z,59.30
2023-01-21T07:42:08.027Z,58.78
2023-01-21T07:44:39.770Z,59.28
2023-01-21T07:47:11.485Z,58.22
2023-01-21T07:49:42.489Z,58.39
2023-01-21T07:52:13.256Z,58.70
2023-01-21T07:54:43.954Z,57.48
2023-01-21T07:57:16.089Z,59.85
2023-01-21T07:59:46.715Z,58.97
2023-01-21T08:02:17.388Z,59.22
2023-01-21T08:04:48.550Z,59.46
2023-01-21T08:07:19.254Z,60.13
2023-01-21T08:09:50.279Z,60.08
2023-01-21T08:12:20.868Z,59.41
2023-01-21T08:14:52.038Z,59.35
2023-01-21T08:17:23.227Z,60.04
2023-01-21T08:19:58.636Z,59.82
2023-01-21T08:22:31.486Z,59.67
2023-01-21T08:25:02.576Z,59.84
2023-01-21T08:27:34.334Z,59.23
2023-01-21T08:30:05.269Z,59.70
2023-01-21T08:32:35.933Z,59.67
2023-01-21T08:35:07.235Z,59.46
2023-01-21T08:37:37.904Z,59.50
2023-01-21T08:40:10.074Z,60.25
2023-01-21T08:42:40.440Z,59.97
2023-01-21T08:45:12.083Z,59.36
2023-01-21T08:47:43.837Z,60.17
2023-01-21T08:50:14.654Z,59.66
2023-01-21T08:52:55.355Z,60.26
2023-01-21T08:55:27.717Z,58.84
2023-01-21T08:57:59.404Z,59.05
2023-01-21T09:00:29.977Z,58.92
2023-01-21T09:03:02.242Z,57.40
2023-01-21T09:05:34.446Z,58.38
2023-01-21T09:08:05.379Z,57.66
2023-01-21T09:10:54.271Z,58.03
2023-01-21T09:13:25.055Z,58.01
2023-01-21T09:15:55.649Z,58.22
2023-01-21T09:18:27.666Z,58.27
2023-01-21T09:21:03.676Z,58.71
2023-01-21T09:23:35.759Z,58.93
2023-01-21T09:26:10.229Z,59.18
2023-01-21T09:28:43.366Z,59.05
2023-01-21T09:31:16.575Z,59.37
2023-01-21T09:33:50.207Z,59.13
2023-01-21T09:36:26.813Z,59.98
2023-01-21T09:38:58.020Z,59.32
2023-01-21T09:41:48.432Z,59.90
2023-01-21T09:44:36.898Z,59.88
2023-01-21T09:47:23.097Z,60.00
2023-01-21T09:50:04.193Z,59.44
2023-01-21T09:52:44.118Z,60.05
2023-01-21T09:55:20.629Z,60.23
2023-01-21T09:58:18.331Z,60.62
2023-01-21T10:01:04.779Z,60.04
2023-01-21T10:04:32.913Z,59.83
2023-01-21T10:07:32.056Z,59.43
2023-01-21T10:10:36.154Z,59.46
2023-01-21T10:13:29.108Z,59.06
2023-01-21T10:16:14.580Z,59.35
2023-01-21T10:18:50.287Z,59.87
2023-01-21T10:21:41.380Z,59.36
2023-01-21T10:24:16.008Z,59.55
2023-01-21T10:26:48.871Z,59.34
2023-01-21T10:29:22.807Z,59.34
2023-01-21T10:32:00.758Z,60.06
2023-01-21T10:34:38.281Z,59.73
2023-01-21T10:37:18.025Z,59.38
2023-01-21T10:40:06.806Z,60.02
2023-01-21T10:42:51.276Z,59.23
2023-01-21T10:45:39.339Z,59.25
2023-01-21T10:48:19.191Z,59.16
2023-01-21T10:50:55.999Z,59.13
2023-01-21T10:53:42.294Z,59.38
2023-01-21T10:56:21.534Z,58.52
2023-01-21T10:59:11.288Z,58.68
2023-01-21T11:01:44.381Z,58.39
2023-01-21T11:04:21.022Z,58.52
2023-01-21T11:07:06.284Z,58.32
2023-01-21T11:09:48.261Z,58.82
2023-01-21T11:12:23.207Z,58.54
2023-01-21T11:14:59.560Z,58.35
2023-01-21T11:17:32.353Z,58.57
2023-01-21T11:20:07.373Z,58.71
2023-01-21T11:22:44.861Z,58.76
2023-01-21T11:25:45.749Z,58.37
2023-01-21T11:28:28.690Z,58.58
2023-01-21T11:31:08.024Z,58.58
2023-01-21T11:33:39.341Z,58.62
2023-01-21T11:36:17.918Z,58.60
2023-01-21T11:39:01.129Z,59.11
2023-01-21T11:41:32.408Z,58.66
2023-01-21T11:44:19.447Z,59.17
2023-01-21T11:46:51.434Z,59.17
2023-01-21T11:49:28.785Z,58.94
2023-01-21T11:52:18.851Z,59.24
2023-01-21T11:54:50.184Z,59.19
2023-01-21T11:57:30.268Z,59.12
2023-01-21T12:00:20.389Z,59.23
2023-01-21T12:03:03.658Z,60.11
2023-01-21T12:05:37.499Z,59.72
2023-01-21T12:08:08.629Z,59.43
2023-01-21T12:10:45.229Z,59.11
2023-01-21T12:13:22.527Z,59.38
2023-01-21T12:16:17.193Z,59.14
2023-01-21T12:19:26.449Z,59.57
2023-01-21T12:22:36.897Z,59.22
2023-01-21T12:25:41.790Z,59.66
2023-01-21T12:28:28.953Z,59.41
2023-01-21T12:31:24.709Z,59.74
2023-01-21T12:34:19.281Z,59.48
2023-01-21T12:36:54.680Z,59.81
2023-01-21T12:39:31.164Z,59.74
2023-01-21T12:42:30.321Z,59.82
2023-01-21T12:45:08.411Z,59.99
2023-01-21T12:47:54.168Z,60.13
2023-01-21T12:50:39.320Z,60.47
2023-01-21T12:53:46.322Z,60.35
2023-01-21T12:56:49.392Z,60.29
2023-01-21T12:59:33.512Z,60.57
2023-01-21T13:02:26.754Z,60.14
2023-01-21T13:05:05.130Z,60.54
2023-01-21T13:07:51.600Z,60.94
2023-01-21T13:10:39.409Z,60.96
2023-01-21T13:13:34.801Z,60.93
2023-01-21T13:16:08.534Z,60.87
2023-01-21T13:18:41.204Z,60.82
2023-01-21T13:21:12.023Z,61.24
2023-01-21T13:23:50.297Z,61.03
2023-01-21T13:26:32.682Z,60.50
2023-01-21T13:29:33.080Z,60.58
2023-01-21T13:32:28.930Z,60.77
2023-01-21T13:34:59.706Z,60.91
2023-01-21T13:37:46.710Z,61.19
2023-01-21T13:40:29.424Z,61.03
2023-01-21T13:43:12.149Z,61.54
2023-01-21T13:45:57.796Z,60.97
2023-01-21T13:48:51.209Z,61.49
2023-01-21T13:51:52.174Z,61.04
2023-01-21T13:54:31.366Z,61.50
2023-01-21T13:57:29.071Z,61.49
2023-01-21T14:00:15.828Z,61.52
2023-01-21T14:03:01.311Z,61.80
2023-01-21T14:05:55.439Z,61.61
2023-01-21T14:08:39.711Z,62.13
2023-01-21T14:11:24.640Z,62.22
2023-01-21T14:14:10.127Z,61.83
2023-01-21T14:16:43.481Z,62.25
2023-01-21T14:19:34.196Z,61.90
2023-01-21T14:22:10.713Z,61.96
2023-01-21T14:25:07.335Z,62.23
2023-01-21T14:28:04.749Z,62.42
2023-01-21T14:31:12.188Z,62.17
2023-01-21T14:33:55.927Z,62.63
2023-01-21T14:36:45.432Z,63.06
2023-01-21T14:39:22.263Z,62.81
2023-01-21T14:42:12.095Z,63.09
2023-01-21T14:44:51.456Z,62.87
2023-01-21T14:47:31.180Z,63.37
2023-01-21T14:50:02.020Z,63.28
2023-01-21T14:52:44.333Z,63.18
2023-01-21T14:55:28.769Z,63.75
2023-01-21T14:58:03.575Z,63.63
2023-01-21T15:00:36.684Z,63.64
2023-01-21T15:03:23.996Z,64.02
2023-01-21T15:06:03.998Z,63.30
2023-01-21T15:08:46.025Z,63.70
2023-01-21T15:11:49.216Z,63.95
2023-01-21T15:14:28.960Z,64.13
2023-01-21T15:17:00.190Z,63.49
2023-01-21T15:19:36.884Z,63.53
2023-01-21T15:22:40.855Z,63.99
2023-01-21T15:25:20.432Z,64.07
2023-01-21T15:28:29.942Z,63.85
2023-01-21T15:31:03.387Z,64.09
2023-01-21T15:33:38.250Z,63.98
2023-01-21T15:36:19.899Z,64.35
2023-01-21T15:38:50.691Z,63.59
2023-01-21T15:41:30.354Z,63.73
2023-01-21T15:44:22.182Z,64.11
2023-01-21T15:47:24.771Z,63.79
2023-01-21T15:50:08.358Z,64.23
2023-01-21T15:53:14.481Z,64.38
2023-01-21T15:56:09.090Z,64.18
2023-01-21T15:58:54.878Z,64.25
2023-01-21T16:01:42.256Z,64.45
2023-01-21T16:04:30.887Z,65.00
2023-01-21T16:07:07.835Z,64.79
2023-01-21T16:10:09.059Z,64.88
2023-01-21T16:13:26.612Z,65.05
2023-01-21T16:16:30.259Z,65.39
2023-01-21T16:19:08.428Z,65.22
2023-01-21T16:21:41.209Z,65.26
2023-01-21T16:24:18.024Z,65.46
2023-01-21T16:26:49.039Z,65.42
2023-01-21T16:29:20.351Z,65.29
2023-01-21T16:32:05.604Z,66.15
2023-01-21T16:34:42.108Z,65.87
2023-01-21T16:37:20.298Z,65.86
2023-01-21T16:39:56.311Z,65.98
2023-01-21T16:42:37.760Z,66.03
2023-01-21T16:45:18.872Z,65.72
2023-01-21T16:48:01.505Z,66.35
2023-01-21T16:50:36.895Z,66.06
2023-01-21T16:53:10.665Z,66.24
2023-01-21T16:55:46.457Z,66.35
2023-01-21T16:58:43.063Z,66.27
2023-01-21T17:01:17.184Z,66.00
2023-01-21T17:03:51.240Z,66.35
2023-01-21T17:06:31.226Z,66.57
2023-01-21T17:09:05.939Z,66.48
2023-01-21T17:11:39.435Z,66.83
2023-01-21T17:14:11.461Z,67.08
2023-01-21T17:16:45.470Z,66.76
2023-01-21T17:19:32.261Z,66.82
2023-01-21T17:22:16.112Z,66.80
2023-01-21T17:25:04.573Z,67.29
2023-01-21T17:27:38.725Z,67.46
2023-01-21T17:30:26.671Z,67.08
2023-01-21T17:32:59.426Z,67.10
2023-01-21T17:35:32.529Z,66.92
2023-01-21T17:38:05.363Z,67.07
2023-01-21T17:41:02.002Z,67.54
2023-01-21T17:43:33.331Z,67.50
2023-01-21T17:46:04.631Z,67.28
2023-01-21T17:48:39.505Z,67.63
2023-01-21T17:51:23.894Z,68.07
2023-01-21T17:53:57.323Z,68.26
2023-01-21T17:56:49.319Z,68.17
2023-01-21T17:59:35.059Z,68.87
2023-01-21T18:02:13.954Z,68.61
2023-01-21T18:04:44.915Z,68.69
2023-01-21T18:07:25.499Z,68.96
2023-01-21T18:09:58.062Z,68.90
2023-01-21T18:12:29.184Z,68.67
2023-01-21T18:14:59.771Z,68.78
2023-01-21T18:17:30.105Z,68.92
2023-01-21T18:20:00.479Z,68.95
2023-01-21T18:22:32.784Z,69.13
2023-01-21T18:25:03.888Z,69.17
2023-01-21T18:27:34.215Z,68.92
2023-01-21T18:30:10.922Z,69.16
2023-01-21T18:32:42.806Z,69.33
2023-01-21T18:35:17.792Z,69.71
2023-01-21T18:37:48.703Z,69.42
2023-01-21T18:40:23.324Z,69.52
2023-01-21T18:42:56.424Z,69.31
2023-01-21T18:45:28.661Z,69.38
2023-01-21T18:47:59.637Z,69.15
2023-01-21T18:50:31.119Z,69.21
2023-01-21T18:53:01.717Z,69.55
2023-01-21T18:55:32.257Z,69.32
2023-01-21T18:58:03.437Z,69.36
2023-01-21T19:00:37.866Z,69.75
2023-01-21T19:03:08.865Z,69.67
2023-01-21T19:05:40.939Z,69.80
2023-01-21T19:08:25.667Z,69.93
2023-01-21T19:10:56.947Z,69.89
2023-01-21T19:13:27.198Z,70.08
2023-01-21T19:15:58.542Z,70.26
2023-01-21T19:18:29.230Z,69.58
2023-01-21T19:20:59.834Z,69.75
2023-01-21T19:23:30.182Z,69.74
2023-01-21T19:26:01.122Z,70.21
2023-01-21T19:28:31.673Z,70.29
2023-01-21T19:31:02.562Z,70.42
2023-01-21T19:33:32.739Z,70.17
2023-01-21T19:36:16.860Z,70.56
2023-01-21T19:38:57.377Z,70.27
2023-01-21T19:41:27.574Z,70.59
2023-01-21T19:43:58.629Z,70.63
2023-01-21T19:46:29.755Z,70.75
2023-01-21T19:49:00.552Z,70.91
2023-01-21T19:51:32.077Z,71.24
2023-01-21T19:54:02.980Z,71.18
2023-01-21T19:56:33.580Z,71.50
2023-01-21T19:59:04.598Z,71.07
2023-01-21T20:01:34.913Z,71.25
2023-01-21T20:04:05.391Z,71.42
2023-01-21T20:06:41.290Z,71.51
2023-01-21T20:09:19.866Z,71.45
2023-01-21T20:11:50.144Z,71.45
2023-01-21T20:14:20.382Z,71.80
2023-01-21T20:16:52.781Z,71.98
2023-01-21T20:19:26.637Z,72.21
2023-01-21T20:22:02.460Z,71.89
2023-01-21T20:24:34.988Z,72.13
2023-01-21T20:27:08.714Z,72.11
2023-01-21T20:29:49.438Z,72.32
2023-01-21T20:32:29.387Z,72.41
2023-01-21T20:34:59.764Z,72.70
2023-01-21T20:37:29.948Z,72.74
2023-01-21T20:40:00.185Z,72.87
2023-01-21T20:45:07.435Z,72.60
2023-01-21T20:47:38.418Z,72.81
2023-01-21T20:50:21.513Z,72.93
2023-01-21T20:52:53.564Z,73.07
2023-01-21T20:55:25.719Z,72.92
2023-01-21T20:57:56.484Z,73.19
2023-01-21T21:00:29.842Z,73.29
2023-01-21T21:03:00.322Z,73.05
2023-01-21T21:05:31.359Z,72.71
2023-01-21T21:08:01.622Z,72.42
2023-01-21T21:10:40.015Z,72.65
2023-01-21T21:13:11.360Z,72.46
2023-01-21T21:15:46.317Z,72.46
2023-01-21T21:18:27.735Z,72.49
2023-01-21T21:20:57.989Z,72.38
2023-01-21T21:23:28.538Z,72.41
2023-01-21T21:25:59.674Z,72.58
2023-01-21T21:28:30.053Z,72.28
2023-01-21T21:31:02.376Z,72.50
2023-01-21T21:33:32.707Z,72.00
2023-01-21T21:36:03.453Z,72.47
2023-01-21T21:38:33.714Z,72.44
2023-01-21T21:41:23.990Z,72.64
2023-01-21T21:43:57.880Z,72.54
2023-01-21T21:46:46.436Z,72.60
2023-01-21T21:49:18.077Z,72.69
2023-01-21T21:51:48.291Z,72.55
2023-01-21T21:54:19.520Z,73.15
2023-01-21T21:56:49.843Z,72.79
2023-01-21T21:59:20.067Z,72.88
2023-01-21T22:01:50.468Z,73.13
2023-01-21T22:04:23.047Z,73.13
2023-01-21T22:06:53.611Z,73.36
2023-01-21T22:09:23.969Z,73.75
2023-01-21T22:11:54.748Z,73.47
2023-01-21T22:14:24.927Z,73.09
2023-01-21T22:16:55.952Z,73.32
2023-01-21T22:19:26.173Z,73.28
2023-01-21T22:21:57.021Z,73.08
2023-01-21T22:24:27.867Z,73.38
2023-01-21T22:26:58.393Z,73.59
2023-01-21T22:29:30.558Z,73.61
2023-01-21T22:32:00.884Z,73.75
2023-01-21T22:34:33.479Z,73.73
2023-01-21T22:37:04.866Z,73.85
2023-01-21T22:39:38.207Z,74.07
2023-01-21T22:42:08.905Z,73.79
2023-01-21T22:44:39.159Z,74.01
2023-01-21T22:47:09.712Z,73.91
2023-01-21T22:49:40.045Z,73.89
2023-01-21T22:52:10.383Z,73.90
2023-01-21T22:54:40.579Z,73.99
2023-01-21T22:57:13.374Z,73.90
2023-01-21T22:59:44.161Z,74.05
2023-01-21T23:02:14.471Z,73.88
2023-01-21T23:04:45.564Z,73.60
2023-01-21T23:07:16.096Z,73.95
2023-01-21T23:09:47.770Z,74.07
2023-01-21T23:12:29.567Z,73.77
2023-01-21T23:14:59.799Z,73.54
2023-01-21T23:17:30.640Z,73.68
2023-01-21T23:20:00.795Z,73.71
2023-01-21T23:22:31.159Z,73.71
2023-01-21T23:25:01.820Z,73.64
2023-01-21T23:27:33.072Z,73.52
2023-01-21T23:30:03.295Z,73.86
2023-01-21T23:32:33.774Z,73.63
2023-01-21T23:35:04.038Z,73.75
2023-01-21T23:37:39.172Z,74.26
2023-01-21T23:40:10.196Z,73.81
2023-01-21T23:42:40.421Z,73.76
2023-01-21T23:45:11.552Z,73.83
2023-01-21T23:47:42.175Z,74.04
2023-01-21T23:50:14.729Z,74.28
2023-01-21T23:52:45.633Z,74.22
2023-01-21T23:55:15.988Z,73.78
2023-01-21T23:57:48.599Z,73.83
